sensor_id;sensor_type;location;lat;lon;timestamp;P1;durP1;ratioP1;P2;durP2;ratioP2
16512;SDS011;8369;48.030;11.598;2023-04-16T00:01:39;2.70;;;2.37;;
16512;SDS011;8369;48.030;11.598;2023-04-16T00:04:05;4.37;;;2.20;;
16512;SDS011;8369;48.030;11.598;2023-04-16T00:06:31;3.30;;;2.40;;
16512;SDS011;8369;48.030;11.598;2023-04-16T00:08:57;3.10;;;2.33;;
16512;SDS011;8369;48.030;11.598;2023-04-16T00:11:23;4.47;;;2.60;;
16512;SDS011;8369;48.030;11.598;2023-04-16T00:13:48;4.27;;;2.60;;
16512;SDS011;8369;48.030;11.598;2023-04-16T00:16:16;3.63;;;3.07;;
16512;SDS011;8369;48.030;11.598;2023-04-16T00:18:42;3.20;;;2.80;;
16512;SDS011;8369;48.030;11.598;2023-04-16T00:21:08;3.40;;;2.67;;
16512;SDS011;8369;48.030;11.598;2023-04-16T00:23:34;4.53;;;3.00;;
16512;SDS011;8369;48.030;11.598;2023-04-16T00:26:01;3.10;;;2.73;;
16512;SDS011;8369;48.030;11.598;2023-04-16T00:28:26;3.20;;;2.90;;
16512;SDS011;8369;48.030;11.598;2023-04-16T00:30:53;3.73;;;2.97;;
16512;SDS011;8369;48.030;11.598;2023-04-16T00:33:19;3.17;;;2.73;;
16512;SDS011;8369;48.030;11.598;2023-04-16T00:35:45;3.30;;;2.93;;
16512;SDS011;8369;48.030;11.598;2023-04-16T00:38:11;5.00;;;3.03;;
16512;SDS011;8369;48.030;11.598;2023-04-16T00:40:37;3.90;;;3.30;;
16512;SDS011;8369;48.030;11.598;2023-04-16T00:43:03;3.53;;;3.10;;
16512;SDS011;8369;48.030;11.598;2023-04-16T00:45:29;3.90;;;3.03;;
16512;SDS011;8369;48.030;11.598;2023-04-16T00:47:55;3.53;;;2.97;;
16512;SDS011;8369;48.030;11.598;2023-04-16T00:50:22;5.50;;;3.30;;
16512;SDS011;8369;48.030;11.598;2023-04-16T00:52:48;5.13;;;3.43;;
16512;SDS011;8369;48.030;11.598;2023-04-16T00:55:14;3.40;;;3.07;;
16512;SDS011;8369;48.030;11.598;2023-04-16T00:57:43;3.80;;;3.10;;
16512;SDS011;8369;48.030;11.598;2023-04-16T01:00:09;2.90;;;2.60;;
16512;SDS011;8369;48.030;11.598;2023-04-16T01:02:36;3.70;;;3.20;;
16512;SDS011;8369;48.030;11.598;2023-04-16T01:05:03;4.90;;;3.10;;
16512;SDS011;8369;48.030;11.598;2023-04-16T01:07:29;4.10;;;3.30;;
16512;SDS011;8369;48.030;11.598;2023-04-16T01:09:55;3.67;;;3.13;;
16512;SDS011;8369;48.030;11.598;2023-04-16T01:12:21;3.77;;;3.17;;
16512;SDS011;8369;48.030;11.598;2023-04-16T01:14:47;3.50;;;3.10;;
16512;SDS011;8369;48.030;11.598;2023-04-16T01:17:13;4.00;;;3.30;;
16512;SDS011;8369;48.030;11.598;2023-04-16T01:19:39;4.20;;;3.30;;
16512;SDS011;8369;48.030;11.598;2023-04-16T01:22:06;3.60;;;2.87;;
16512;SDS011;8369;48.030;11.598;2023-04-16T01:24:32;3.70;;;3.13;;
16512;SDS011;8369;48.030;11.598;2023-04-16T01:26:58;3.70;;;3.23;;
16512;SDS011;8369;48.030;11.598;2023-04-16T01:29:25;4.63;;;3.20;;
16512;SDS011;8369;48.030;11.598;2023-04-16T01:31:51;5.50;;;4.13;;
16512;SDS011;8369;48.030;11.598;2023-04-16T01:34:18;16.53;;;10.13;;
16512;SDS011;8369;48.030;11.598;2023-04-16T01:36:44;18.23;;;10.93;;
16512;SDS011;8369;48.030;11.598;2023-04-16T01:39:10;18.80;;;10.63;;
16512;SDS011;8369;48.030;11.598;2023-04-16T01:41:39;7.33;;;5.20;;
16512;SDS011;8369;48.030;11.598;2023-04-16T01:44:05;4.20;;;3.53;;
16512;SDS011;8369;48.030;11.598;2023-04-16T01:46:32;4.40;;;3.30;;
16512;SDS011;8369;48.030;11.598;2023-04-16T01:49:03;3.92;;;3.42;;
16512;SDS011;8369;48.030;11.598;2023-04-16T01:51:30;3.63;;;3.27;;
16512;SDS011;8369;48.030;11.598;2023-04-16T01:53:56;3.90;;;3.30;;
16512;SDS011;8369;48.030;11.598;2023-04-16T01:56:22;3.33;;;2.73;;
16512;SDS011;8369;48.030;11.598;2023-04-16T01:58:48;4.40;;;3.07;;
16512;SDS011;8369;48.030;11.598;2023-04-16T02:01:14;3.73;;;3.03;;
16512;SDS011;8369;48.030;11.598;2023-04-16T02:03:40;5.40;;;2.93;;
16512;SDS011;8369;48.030;11.598;2023-04-16T02:06:06;3.30;;;2.80;;
16512;SDS011;8369;48.030;11.598;2023-04-16T02:08:32;3.57;;;2.80;;
16512;SDS011;8369;48.030;11.598;2023-04-16T02:10:58;3.53;;;3.00;;
16512;SDS011;8369;48.030;11.598;2023-04-16T02:13:24;4.13;;;3.17;;
16512;SDS011;8369;48.030;11.598;2023-04-16T02:15:50;3.67;;;3.20;;
16512;SDS011;8369;48.030;11.598;2023-04-16T02:18:17;4.13;;;3.20;;
16512;SDS011;8369;48.030;11.598;2023-04-16T02:20:43;5.07;;;3.60;;
16512;SDS011;8369;48.030;11.598;2023-04-16T02:23:11;4.70;;;3.73;;
16512;SDS011;8369;48.030;11.598;2023-04-16T02:25:43;5.63;;;4.70;;
16512;SDS011;8369;48.030;11.598;2023-04-16T02:28:11;5.10;;;4.13;;
16512;SDS011;8369;48.030;11.598;2023-04-16T02:30:39;4.67;;;4.17;;
16512;SDS011;8369;48.030;11.598;2023-04-16T02:33:06;6.47;;;5.20;;
16512;SDS011;8369;48.030;11.598;2023-04-16T02:35:34;6.80;;;5.00;;
16512;SDS011;8369;48.030;11.598;2023-04-16T02:38:02;4.80;;;4.30;;
16512;SDS011;8369;48.030;11.598;2023-04-16T02:40:31;5.07;;;3.17;;
16512;SDS011;8369;48.030;11.598;2023-04-16T02:42:57;2.87;;;2.57;;
16512;SDS011;8369;48.030;11.598;2023-04-16T02:45:23;5.10;;;3.40;;
16512;SDS011;8369;48.030;11.598;2023-04-16T02:47:49;4.60;;;3.27;;
16512;SDS011;8369;48.030;11.598;2023-04-16T02:50:16;3.57;;;3.07;;
16512;SDS011;8369;48.030;11.598;2023-04-16T02:52:42;4.87;;;3.50;;
16512;SDS011;8369;48.030;11.598;2023-04-16T02:55:08;4.83;;;3.37;;
16512;SDS011;8369;48.030;11.598;2023-04-16T02:57:35;3.17;;;2.60;;
16512;SDS011;8369;48.030;11.598;2023-04-16T03:00:01;3.20;;;2.80;;
16512;SDS011;8369;48.030;11.598;2023-04-16T03:02:29;3.13;;;2.67;;
16512;SDS011;8369;48.030;11.598;2023-04-16T03:04:55;3.03;;;2.67;;
16512;SDS011;8369;48.030;11.598;2023-04-16T03:07:21;3.63;;;3.20;;
16512;SDS011;8369;48.030;11.598;2023-04-16T03:09:46;3.20;;;2.80;;
16512;SDS011;8369;48.030;11.598;2023-04-16T03:12:12;3.00;;;2.70;;
16512;SDS011;8369;48.030;11.598;2023-04-16T03:14:38;3.70;;;2.90;;
16512;SDS011;8369;48.030;11.598;2023-04-16T03:17:04;3.10;;;2.80;;
16512;SDS011;8369;48.030;11.598;2023-04-16T03:19:30;3.27;;;2.53;;
16512;SDS011;8369;48.030;11.598;2023-04-16T03:21:56;5.60;;;2.77;;
16512;SDS011;8369;48.030;11.598;2023-04-16T03:24:22;3.40;;;2.90;;
16512;SDS011;8369;48.030;11.598;2023-04-16T03:26:48;3.33;;;2.50;;
16512;SDS011;8369;48.030;11.598;2023-04-16T03:29:14;2.97;;;2.63;;
16512;SDS011;8369;48.030;11.598;2023-04-16T03:31:40;3.33;;;2.90;;
16512;SDS011;8369;48.030;11.598;2023-04-16T03:34:05;3.47;;;2.63;;
16512;SDS011;8369;48.030;11.598;2023-04-16T03:36:31;2.80;;;2.53;;
16512;SDS011;8369;48.030;11.598;2023-04-16T03:38:57;4.47;;;3.50;;
16512;SDS011;8369;48.030;11.598;2023-04-16T03:41:23;3.33;;;2.73;;
16512;SDS011;8369;48.030;11.598;2023-04-16T03:43:49;3.03;;;2.73;;
16512;SDS011;8369;48.030;11.598;2023-04-16T03:46:15;3.27;;;2.60;;
16512;SDS011;8369;48.030;11.598;2023-04-16T03:48:40;3.40;;;2.83;;
16512;SDS011;8369;48.030;11.598;2023-04-16T03:51:06;3.38;;;3.00;;
16512;SDS011;8369;48.030;11.598;2023-04-16T03:53:32;3.70;;;2.90;;
16512;SDS011;8369;48.030;11.598;2023-04-16T03:55:58;3.20;;;2.83;;
16512;SDS011;8369;48.030;11.598;2023-04-16T03:58:24;2.57;;;2.20;;
16512;SDS011;8369;48.030;11.598;2023-04-16T04:00:51;2.97;;;2.67;;
16512;SDS011;8369;48.030;11.598;2023-04-16T04:03:19;3.80;;;2.40;;
16512;SDS011;8369;48.030;11.598;2023-04-16T04:05:45;3.07;;;2.77;;
16512;SDS011;8369;48.030;11.598;2023-04-16T04:08:11;2.90;;;2.50;;
16512;SDS011;8369;48.030;11.598;2023-04-16T04:10:37;3.20;;;2.90;;
16512;SDS011;8369;48.030;11.598;2023-04-16T04:13:03;3.30;;;2.73;;
16512;SDS011;8369;48.030;11.598;2023-04-16T04:15:30;3.17;;;2.83;;
16512;SDS011;8369;48.030;11.598;2023-04-16T04:17:56;3.67;;;2.90;;
16512;SDS011;8369;48.030;11.598;2023-04-16T04:20:23;3.67;;;2.70;;
16512;SDS011;8369;48.030;11.598;2023-04-16T04:22:49;4.83;;;3.47;;
16512;SDS011;8369;48.030;11.598;2023-04-16T04:25:15;3.87;;;2.80;;
16512;SDS011;8369;48.030;11.598;2023-04-16T04:27:41;2.77;;;2.47;;
16512;SDS011;8369;48.030;11.598;2023-04-16T04:30:07;6.03;;;3.10;;
16512;SDS011;8369;48.030;11.598;2023-04-16T04:32:34;4.83;;;3.87;;
16512;SDS011;8369;48.030;11.598;2023-04-16T04:35:00;4.20;;;2.93;;
16512;SDS011;8369;48.030;11.598;2023-04-16T04:37:27;2.63;;;2.40;;
16512;SDS011;8369;48.030;11.598;2023-04-16T04:39:54;3.23;;;2.70;;
16512;SDS011;8369;48.030;11.598;2023-04-16T04:42:20;3.13;;;2.83;;
16512;SDS011;8369;48.030;11.598;2023-04-16T04:44:46;2.67;;;2.37;;
16512;SDS011;8369;48.030;11.598;2023-04-16T04:47:12;3.40;;;2.70;;
16512;SDS011;8369;48.030;11.598;2023-04-16T04:49:39;2.60;;;2.40;;
16512;SDS011;8369;48.030;11.598;2023-04-16T04:52:05;3.17;;;2.30;;
16512;SDS011;8369;48.030;11.598;2023-04-16T04:54:31;8.27;;;2.43;;
16512;SDS011;8369;48.030;11.598;2023-04-16T04:56:57;3.03;;;2.73;;
16512;SDS011;8369;48.030;11.598;2023-04-16T04:59:23;2.33;;;2.10;;
16512;SDS011;8369;48.030;11.598;2023-04-16T05:01:50;2.97;;;2.33;;
16512;SDS011;8369;48.030;11.598;2023-04-16T05:04:16;2.53;;;2.10;;
16512;SDS011;8369;48.030;11.598;2023-04-16T05:06:42;3.30;;;2.30;;
16512;SDS011;8369;48.030;11.598;2023-04-16T05:09:09;3.33;;;2.40;;
16512;SDS011;8369;48.030;11.598;2023-04-16T05:11:39;2.23;;;2.03;;
16512;SDS011;8369;48.030;11.598;2023-04-16T05:14:06;2.83;;;2.20;;
16512;SDS011;8369;48.030;11.598;2023-04-16T05:16:34;2.60;;;2.13;;
16512;SDS011;8369;48.030;11.598;2023-04-16T05:19:01;2.30;;;2.10;;
16512;SDS011;8369;48.030;11.598;2023-04-16T05:21:26;2.17;;;1.87;;
16512;SDS011;8369;48.030;11.598;2023-04-16T05:23:53;2.50;;;2.00;;
16512;SDS011;8369;48.030;11.598;2023-04-16T05:26:19;2.50;;;1.97;;
16512;SDS011;8369;48.030;11.598;2023-04-16T05:28:47;2.80;;;2.00;;
16512;SDS011;8369;48.030;11.598;2023-04-16T05:31:13;2.03;;;1.70;;
16512;SDS011;8369;48.030;11.598;2023-04-16T05:33:38;1.80;;;1.70;;
16512;SDS011;8369;48.030;11.598;2023-04-16T05:36:04;2.23;;;1.70;;
16512;SDS011;8369;48.030;11.598;2023-04-16T05:38:30;2.00;;;1.80;;
16512;SDS011;8369;48.030;11.598;2023-04-16T05:40:56;1.50;;;1.40;;
16512;SDS011;8369;48.030;11.598;2023-04-16T05:43:22;1.70;;;1.47;;
16512;SDS011;8369;48.030;11.598;2023-04-16T05:45:48;2.53;;;1.70;;
16512;SDS011;8369;48.030;11.598;2023-04-16T05:48:14;1.60;;;1.50;;
16512;SDS011;8369;48.030;11.598;2023-04-16T05:50:40;1.73;;;1.50;;
16512;SDS011;8369;48.030;11.598;2023-04-16T05:53:06;1.30;;;1.20;;
16512;SDS011;8369;48.030;11.598;2023-04-16T05:55:33;1.40;;;1.30;;
16512;SDS011;8369;48.030;11.598;2023-04-16T05:58:02;1.27;;;1.17;;
16512;SDS011;8369;48.030;11.598;2023-04-16T06:00:29;1.27;;;1.17;;
16512;SDS011;8369;48.030;11.598;2023-04-16T06:02:58;1.60;;;1.50;;
16512;SDS011;8369;48.030;11.598;2023-04-16T06:05:25;1.30;;;1.20;;
16512;SDS011;8369;48.030;11.598;2023-04-16T06:07:51;1.20;;;1.10;;
16512;SDS011;8369;48.030;11.598;2023-04-16T06:10:17;1.60;;;1.50;;
16512;SDS011;8369;48.030;11.598;2023-04-16T06:12:43;1.40;;;1.30;;
16512;SDS011;8369;48.030;11.598;2023-04-16T06:15:09;1.30;;;1.20;;
16512;SDS011;8369;48.030;11.598;2023-04-16T06:17:35;1.33;;;1.10;;
16512;SDS011;8369;48.030;11.598;2023-04-16T06:20:01;1.10;;;1.10;;
16512;SDS011;8369;48.030;11.598;2023-04-16T06:22:27;1.30;;;1.20;;
16512;SDS011;8369;48.030;11.598;2023-04-16T06:24:53;1.00;;;1.00;;
16512;SDS011;8369;48.030;11.598;2023-04-16T06:27:19;1.33;;;1.23;;
16512;SDS011;8369;48.030;11.598;2023-04-16T06:29:45;0.90;;;0.90;;
16512;SDS011;8369;48.030;11.598;2023-04-16T06:32:10;0.80;;;0.80;;
16512;SDS011;8369;48.030;11.598;2023-04-16T06:34:36;1.10;;;1.00;;
16512;SDS011;8369;48.030;11.598;2023-04-16T06:37:03;0.90;;;0.90;;
16512;SDS011;8369;48.030;11.598;2023-04-16T06:39:29;1.30;;;1.20;;
16512;SDS011;8369;48.030;11.598;2023-04-16T06:41:55;0.90;;;0.90;;
16512;SDS011;8369;48.030;11.598;2023-04-16T06:44:21;2.27;;;0.80;;
16512;SDS011;8369;48.030;11.598;2023-04-16T06:46:47;0.80;;;0.80;;
16512;SDS011;8369;48.030;11.598;2023-04-16T06:49:13;0.80;;;0.80;;
16512;SDS011;8369;48.030;11.598;2023-04-16T06:51:38;1.20;;;1.00;;
16512;SDS011;8369;48.030;11.598;2023-04-16T06:54:04;1.10;;;0.80;;
16512;SDS011;8369;48.030;11.598;2023-04-16T06:56:30;0.90;;;0.90;;
16512;SDS011;8369;48.030;11.598;2023-04-16T06:58:56;0.83;;;0.83;;
16512;SDS011;8369;48.030;11.598;2023-04-16T07:01:23;1.20;;;1.10;;
16512;SDS011;8369;48.030;11.598;2023-04-16T07:03:49;1.10;;;1.00;;
16512;SDS011;8369;48.030;11.598;2023-04-16T07:06:15;0.60;;;0.60;;
16512;SDS011;8369;48.030;11.598;2023-04-16T07:08:40;1.07;;;0.93;;
16512;SDS011;8369;48.030;11.598;2023-04-16T07:11:06;1.40;;;1.30;;
16512;SDS011;8369;48.030;11.598;2023-04-16T07:13:33;0.90;;;0.90;;
16512;SDS011;8369;48.030;11.598;2023-04-16T07:15:59;0.70;;;0.70;;
16512;SDS011;8369;48.030;11.598;2023-04-16T07:18:25;0.70;;;0.70;;
16512;SDS011;8369;48.030;11.598;2023-04-16T07:20:50;1.60;;;0.93;;
16512;SDS011;8369;48.030;11.598;2023-04-16T07:23:16;0.50;;;0.50;;
16512;SDS011;8369;48.030;11.598;2023-04-16T07:25:42;0.50;;;0.50;;
16512;SDS011;8369;48.030;11.598;2023-04-16T07:28:08;0.73;;;0.73;;
16512;SDS011;8369;48.030;11.598;2023-04-16T07:30:34;0.63;;;0.63;;
16512;SDS011;8369;48.030;11.598;2023-04-16T07:33:03;0.80;;;0.80;;
16512;SDS011;8369;48.030;11.598;2023-04-16T07:35:29;0.93;;;0.60;;
16512;SDS011;8369;48.030;11.598;2023-04-16T07:37:56;0.60;;;0.60;;
16512;SDS011;8369;48.030;11.598;2023-04-16T07:40:22;0.50;;;0.50;;
16512;SDS011;8369;48.030;11.598;2023-04-16T07:42:48;0.60;;;0.60;;
16512;SDS011;8369;48.030;11.598;2023-04-16T07:45:15;0.50;;;0.50;;
16512;SDS011;8369;48.030;11.598;2023-04-16T07:47:41;1.03;;;0.90;;
16512;SDS011;8369;48.030;11.598;2023-04-16T07:50:07;0.80;;;0.77;;
16512;SDS011;8369;48.030;11.598;2023-04-16T07:52:33;1.17;;;1.07;;
16512;SDS011;8369;48.030;11.598;2023-04-16T07:54:59;1.00;;;0.90;;
16512;SDS011;8369;48.030;11.598;2023-04-16T07:57:25;3.47;;;0.63;;
16512;SDS011;8369;48.030;11.598;2023-04-16T07:59:51;0.70;;;0.70;;
16512;SDS011;8369;48.030;11.598;2023-04-16T08:02:17;0.70;;;0.70;;
16512;SDS011;8369;48.030;11.598;2023-04-16T08:04:42;0.80;;;0.80;;
16512;SDS011;8369;48.030;11.598;2023-04-16T08:07:08;1.43;;;1.10;;
16512;SDS011;8369;48.030;11.598;2023-04-16T08:09:34;0.90;;;0.80;;
16512;SDS011;8369;48.030;11.598;2023-04-16T08:12:00;0.90;;;0.90;;
16512;SDS011;8369;48.030;11.598;2023-04-16T08:14:27;1.00;;;0.80;;
16512;SDS011;8369;48.030;11.598;2023-04-16T08:16:53;0.83;;;0.83;;
16512;SDS011;8369;48.030;11.598;2023-04-16T08:19:19;0.80;;;0.80;;
16512;SDS011;8369;48.030;11.598;2023-04-16T08:21:45;0.80;;;0.80;;
16512;SDS011;8369;48.030;11.598;2023-04-16T08:24:11;1.90;;;1.37;;
16512;SDS011;8369;48.030;11.598;2023-04-16T08:26:37;1.57;;;1.27;;
16512;SDS011;8369;48.030;11.598;2023-04-16T08:29:03;1.80;;;1.40;;
16512;SDS011;8369;48.030;11.598;2023-04-16T08:31:29;1.63;;;1.10;;
16512;SDS011;8369;48.030;11.598;2023-04-16T08:33:55;0.90;;;0.90;;
16512;SDS011;8369;48.030;11.598;2023-04-16T08:36:21;0.80;;;0.80;;
16512;SDS011;8369;48.030;11.598;2023-04-16T08:38:47;0.90;;;0.90;;
16512;SDS011;8369;48.030;11.598;2023-04-16T08:41:13;1.10;;;1.00;;
16512;SDS011;8369;48.030;11.598;2023-04-16T08:43:43;0.63;;;0.63;;
16512;SDS011;8369;48.030;11.598;2023-04-16T08:46:12;1.13;;;1.00;;
16512;SDS011;8369;48.030;11.598;2023-04-16T08:48:41;1.40;;;1.30;;
16512;SDS011;8369;48.030;11.598;2023-04-16T08:51:09;0.73;;;0.73;;
16512;SDS011;8369;48.030;11.598;2023-04-16T08:53:42;1.33;;;1.00;;
16512;SDS011;8369;48.030;11.598;2023-04-16T08:56:12;0.93;;;0.90;;
16512;SDS011;8369;48.030;11.598;2023-04-16T08:58:39;0.90;;;0.90;;
16512;SDS011;8369;48.030;11.598;2023-04-16T09:01:06;1.30;;;1.20;;
16512;SDS011;8369;48.030;11.598;2023-04-16T09:03:34;0.80;;;0.80;;
16512;SDS011;8369;48.030;11.598;2023-04-16T09:06:00;1.00;;;1.00;;
16512;SDS011;8369;48.030;11.598;2023-04-16T09:08:28;0.80;;;0.80;;
16512;SDS011;8369;48.030;11.598;2023-04-16T09:10:55;0.60;;;0.60;;
16512;SDS011;8369;48.030;11.598;2023-04-16T09:13:21;0.90;;;0.90;;
16512;SDS011;8369;48.030;11.598;2023-04-16T09:15:50;1.30;;;1.20;;
16512;SDS011;8369;48.030;11.598;2023-04-16T09:18:55;0.90;;;0.90;;
16512;SDS011;8369;48.030;11.598;2023-04-16T09:21:22;1.20;;;1.10;;
16512;SDS011;8369;48.030;11.598;2023-04-16T09:23:48;1.00;;;1.00;;
16512;SDS011;8369;48.030;11.598;2023-04-16T09:26:14;1.20;;;1.10;;
16512;SDS011;8369;48.030;11.598;2023-04-16T09:28:41;0.93;;;0.93;;
16512;SDS011;8369;48.030;11.598;2023-04-16T09:31:08;0.80;;;0.80;;
16512;SDS011;8369;48.030;11.598;2023-04-16T09:33:36;1.10;;;1.00;;
16512;SDS011;8369;48.030;11.598;2023-04-16T09:36:02;1.10;;;1.00;;
16512;SDS011;8369;48.030;11.598;2023-04-16T09:38:49;1.00;;;1.00;;
16512;SDS011;8369;48.030;11.598;2023-04-16T09:41:16;1.17;;;1.07;;
16512;SDS011;8369;48.030;11.598;2023-04-16T09:43:58;0.80;;;0.80;;
16512;SDS011;8369;48.030;11.598;2023-04-16T09:46:29;1.23;;;0.80;;
16512;SDS011;8369;48.030;11.598;2023-04-16T09:49:03;0.80;;;0.80;;
16512;SDS011;8369;48.030;11.598;2023-04-16T09:51:42;0.90;;;0.90;;
16512;SDS011;8369;48.030;11.598;2023-04-16T09:54:09;0.80;;;0.80;;
16512;SDS011;8369;48.030;11.598;2023-04-16T09:56:42;0.80;;;0.80;;
16512;SDS011;8369;48.030;11.598;2023-04-16T09:59:18;0.70;;;0.70;;
16512;SDS011;8369;48.030;11.598;2023-04-16T10:01:45;0.77;;;0.77;;
16512;SDS011;8369;48.030;11.598;2023-04-16T10:04:11;0.80;;;0.80;;
16512;SDS011;8369;48.030;11.598;2023-04-16T10:06:37;0.80;;;0.80;;
16512;SDS011;8369;48.030;11.598;2023-04-16T10:09:05;3.30;;;1.00;;
16512;SDS011;8369;48.030;11.598;2023-04-16T10:11:32;0.90;;;0.90;;
16512;SDS011;8369;48.030;11.598;2023-04-16T10:13:59;0.80;;;0.80;;
16512;SDS011;8369;48.030;11.598;2023-04-16T10:16:25;1.90;;;1.57;;
16512;SDS011;8369;48.030;11.598;2023-04-16T10:18:52;0.90;;;0.90;;
16512;SDS011;8369;48.030;11.598;2023-04-16T10:21:18;0.67;;;0.67;;
16512;SDS011;8369;48.030;11.598;2023-04-16T10:23:45;0.97;;;0.90;;
16512;SDS011;8369;48.030;11.598;2023-04-16T10:26:13;1.17;;;1.00;;
16512;SDS011;8369;48.030;11.598;2023-04-16T10:28:42;0.90;;;0.90;;
16512;SDS011;8369;48.030;11.598;2023-04-16T10:31:09;0.80;;;0.80;;
16512;SDS011;8369;48.030;11.598;2023-04-16T10:33:39;0.90;;;0.90;;
16512;SDS011;8369;48.030;11.598;2023-04-16T10:36:14;2.60;;;1.20;;
16512;SDS011;8369;48.030;11.598;2023-04-16T10:38:56;0.90;;;0.90;;
16512;SDS011;8369;48.030;11.598;2023-04-16T10:41:24;0.90;;;0.90;;
16512;SDS011;8369;48.030;11.598;2023-04-16T10:43:51;2.73;;;1.00;;
16512;SDS011;8369;48.030;11.598;2023-04-16T10:46:31;0.77;;;0.77;;
16512;SDS011;8369;48.030;11.598;2023-04-16T10:48:59;1.20;;;1.10;;
16512;SDS011;8369;48.030;11.598;2023-04-16T10:56:36;1.23;;;1.13;;
16512;SDS011;8369;48.030;11.598;2023-04-16T10:59:06;1.20;;;1.10;;
16512;SDS011;8369;48.030;11.598;2023-04-16T11:01:44;0.90;;;0.90;;
16512;SDS011;8369;48.030;11.598;2023-04-16T11:04:25;0.70;;;0.70;;
16512;SDS011;8369;48.030;11.598;2023-04-16T11:09:52;0.83;;;0.83;;
16512;SDS011;8369;48.030;11.598;2023-04-16T11:12:22;0.80;;;0.80;;
16512;SDS011;8369;48.030;11.598;2023-04-16T11:15:15;0.90;;;0.90;;
16512;SDS011;8369;48.030;11.598;2023-04-16T11:17:46;1.47;;;0.87;;
16512;SDS011;8369;48.030;11.598;2023-04-16T11:20:18;0.90;;;0.90;;
16512;SDS011;8369;48.030;11.598;2023-04-16T11:22:44;0.83;;;0.80;;
16512;SDS011;8369;48.030;11.598;2023-04-16T11:25:11;1.03;;;1.00;;
16512;SDS011;8369;48.030;11.598;2023-04-16T11:27:37;1.07;;;0.93;;
16512;SDS011;8369;48.030;11.598;2023-04-16T11:30:03;1.30;;;1.10;;
16512;SDS011;8369;48.030;11.598;2023-04-16T11:32:34;0.70;;;0.70;;
16512;SDS011;8369;48.030;11.598;2023-04-16T11:35:01;0.90;;;0.90;;
16512;SDS011;8369;48.030;11.598;2023-04-16T11:37:33;1.13;;;1.00;;
16512;SDS011;8369;48.030;11.598;2023-04-16T11:40:01;1.43;;;1.00;;
16512;SDS011;8369;48.030;11.598;2023-04-16T11:42:31;0.70;;;0.70;;
16512;SDS011;8369;48.030;11.598;2023-04-16T11:44:59;0.77;;;0.77;;
16512;SDS011;8369;48.030;11.598;2023-04-16T11:47:25;0.90;;;0.90;;
16512;SDS011;8369;48.030;11.598;2023-04-16T11:49:51;0.90;;;0.90;;
16512;SDS011;8369;48.030;11.598;2023-04-16T11:52:52;0.80;;;0.80;;
16512;SDS011;8369;48.030;11.598;2023-04-16T11:55:11;0.70;;;0.70;;
16512;SDS011;8369;48.030;11.598;2023-04-16T11:57:37;0.80;;;0.80;;
16512;SDS011;8369;48.030;11.598;2023-04-16T12:00:03;0.80;;;0.80;;
16512;SDS011;8369;48.030;11.598;2023-04-16T12:02:52;1.10;;;1.00;;
16512;SDS011;8369;48.030;11.598;2023-04-16T12:05:30;0.80;;;0.80;;
16512;SDS011;8369;48.030;11.598;2023-04-16T12:08:00;0.60;;;0.60;;
16512;SDS011;8369;48.030;11.598;2023-04-16T12:10:28;0.83;;;0.80;;
16512;SDS011;8369;48.030;11.598;2023-04-16T12:13:14;1.20;;;1.10;;
16512;SDS011;8369;48.030;11.598;2023-04-16T12:15:47;0.90;;;0.90;;
16512;SDS011;8369;48.030;11.598;2023-04-16T12:18:22;0.90;;;0.90;;
16512;SDS011;8369;48.030;11.598;2023-04-16T12:20:50;1.60;;;1.20;;
16512;SDS011;8369;48.030;11.598;2023-04-16T12:23:23;1.23;;;1.07;;
16512;SDS011;8369;48.030;11.598;2023-04-16T12:25:54;0.77;;;0.77;;
16512;SDS011;8369;48.030;11.598;2023-04-16T12:28:31;1.00;;;1.00;;
16512;SDS011;8369;48.030;11.598;2023-04-16T12:30:58;1.17;;;1.07;;
16512;SDS011;8369;48.030;11.598;2023-04-16T12:33:25;1.10;;;1.07;;
16512;SDS011;8369;48.030;11.598;2023-04-16T12:35:50;1.20;;;1.10;;
16512;SDS011;8369;48.030;11.598;2023-04-16T12:38:16;1.00;;;1.00;;
16512;SDS011;8369;48.030;11.598;2023-04-16T12:40:42;0.80;;;0.80;;
16512;SDS011;8369;48.030;11.598;2023-04-16T12:43:09;1.00;;;1.00;;
16512;SDS011;8369;48.030;11.598;2023-04-16T12:45:35;0.90;;;0.90;;
16512;SDS011;8369;48.030;11.598;2023-04-16T12:48:02;0.90;;;0.90;;
16512;SDS011;8369;48.030;11.598;2023-04-16T12:50:28;0.90;;;0.90;;
16512;SDS011;8369;48.030;11.598;2023-04-16T12:52:55;0.93;;;0.93;;
16512;SDS011;8369;48.030;11.598;2023-04-16T12:55:21;0.80;;;0.80;;
16512;SDS011;8369;48.030;11.598;2023-04-16T12:57:47;0.97;;;0.97;;
16512;SDS011;8369;48.030;11.598;2023-04-16T13:00:14;1.43;;;1.30;;
16512;SDS011;8369;48.030;11.598;2023-04-16T13:02:40;1.93;;;1.30;;
16512;SDS011;8369;48.030;11.598;2023-04-16T13:05:08;0.97;;;0.90;;
16512;SDS011;8369;48.030;11.598;2023-04-16T13:07:34;0.97;;;0.97;;
16512;SDS011;8369;48.030;11.598;2023-04-16T13:10:00;1.00;;;0.90;;
16512;SDS011;8369;48.030;11.598;2023-04-16T13:12:26;2.20;;;1.20;;
16512;SDS011;8369;48.030;11.598;2023-04-16T13:14:52;1.10;;;1.00;;
16512;SDS011;8369;48.030;11.598;2023-04-16T13:17:20;1.53;;;1.10;;
16512;SDS011;8369;48.030;11.598;2023-04-16T13:19:45;1.00;;;0.80;;
16512;SDS011;8369;48.030;11.598;2023-04-16T13:22:11;1.60;;;0.90;;
16512;SDS011;8369;48.030;11.598;2023-04-16T13:24:37;1.03;;;1.03;;
16512;SDS011;8369;48.030;11.598;2023-04-16T13:27:03;1.37;;;1.00;;
16512;SDS011;8369;48.030;11.598;2023-04-16T13:29:30;0.97;;;0.87;;
16512;SDS011;8369;48.030;11.598;2023-04-16T13:31:56;1.40;;;1.00;;
16512;SDS011;8369;48.030;11.598;2023-04-16T13:34:22;1.03;;;0.97;;
16512;SDS011;8369;48.030;11.598;2023-04-16T13:36:48;2.07;;;1.23;;
16512;SDS011;8369;48.030;11.598;2023-04-16T13:39:14;1.33;;;1.23;;
16512;SDS011;8369;48.030;11.598;2023-04-16T13:41:40;2.57;;;2.37;;
16512;SDS011;8369;48.030;11.598;2023-04-16T13:44:06;1.40;;;1.30;;
16512;SDS011;8369;48.030;11.598;2023-04-16T13:46:32;1.10;;;1.00;;
16512;SDS011;8369;48.030;11.598;2023-04-16T13:48:58;1.07;;;1.03;;
16512;SDS011;8369;48.030;11.598;2023-04-16T13:51:25;1.10;;;1.00;;
16512;SDS011;8369;48.030;11.598;2023-04-16T13:53:52;1.00;;;0.80;;
16512;SDS011;8369;48.030;11.598;2023-04-16T13:56:20;0.90;;;0.90;;
16512;SDS011;8369;48.030;11.598;2023-04-16T13:58:46;2.10;;;1.10;;
16512;SDS011;8369;48.030;11.598;2023-04-16T14:01:12;3.63;;;2.70;;
16512;SDS011;8369;48.030;11.598;2023-04-16T14:03:38;2.70;;;2.00;;
16512;SDS011;8369;48.030;11.598;2023-04-16T14:06:05;1.30;;;1.20;;
16512;SDS011;8369;48.030;11.598;2023-04-16T14:08:30;0.90;;;0.90;;
16512;SDS011;8369;48.030;11.598;2023-04-16T14:10:57;0.90;;;0.90;;
16512;SDS011;8369;48.030;11.598;2023-04-16T14:13:23;2.67;;;1.43;;
16512;SDS011;8369;48.030;11.598;2023-04-16T14:15:50;1.30;;;1.20;;
16512;SDS011;8369;48.030;11.598;2023-04-16T14:18:18;1.27;;;1.17;;
16512;SDS011;8369;48.030;11.598;2023-04-16T14:20:44;1.00;;;1.00;;
16512;SDS011;8369;48.030;11.598;2023-04-16T14:23:10;1.03;;;0.93;;
16512;SDS011;8369;48.030;11.598;2023-04-16T14:25:36;2.53;;;1.00;;
16512;SDS011;8369;48.030;11.598;2023-04-16T14:28:02;1.10;;;1.00;;
16512;SDS011;8369;48.030;11.598;2023-04-16T14:30:28;1.40;;;1.30;;
16512;SDS011;8369;48.030;11.598;2023-04-16T14:32:54;1.53;;;1.33;;
16512;SDS011;8369;48.030;11.598;2023-04-16T14:35:20;1.10;;;1.00;;
16512;SDS011;8369;48.030;11.598;2023-04-16T14:37:47;1.17;;;1.07;;
16512;SDS011;8369;48.030;11.598;2023-04-16T14:40:13;1.67;;;1.43;;
16512;SDS011;8369;48.030;11.598;2023-04-16T14:42:39;1.00;;;0.90;;
16512;SDS011;8369;48.030;11.598;2023-04-16T14:45:05;1.73;;;1.30;;
16512;SDS011;8369;48.030;11.598;2023-04-16T14:47:33;2.07;;;1.50;;
16512;SDS011;8369;48.030;11.598;2023-04-16T14:50:00;1.50;;;1.30;;
16512;SDS011;8369;48.030;11.598;2023-04-16T14:52:27;1.83;;;1.20;;
16512;SDS011;8369;48.030;11.598;2023-04-16T14:54:55;1.10;;;1.00;;
16512;SDS011;8369;48.030;11.598;2023-04-16T14:57:21;1.10;;;1.00;;